Time;durP1;ratioP1;P1;durP2;ratioP2;P2;SDS_P1;SDS_P2;PMS_P1;PMS_P2;Temp;Humidity;BMP_temperature;BMP_pressure;BME280_temperature;BME280_humidity;BME280_pressure;Samples;Min_cycle;Max_cycle;Signal;HPM_P1;HPM_P2
2023/09/20 00:04:29;;;;;;;10.20;9.40;;;;;;;;;;2612384;54;20448;-78
2023/09/20 00:10:00;;;;;;;10.00;9.20;;;;;;;;;;2612036;54;20394;-78
2023/09/20 00:15:30;;;;;;;9.50;8.67;;;;;;;;;;2613763;54;20431;-79
2023/09/20 00:21:01;;;;;;;8.50;8.00;;;;;;;;;;2614249;54;20561;-80
2023/09/20 00:26:32;;;;;;;9.67;9.03;;;;;;;;;;2613184;54;20510;-79
2023/09/20 00:32:02;;;;;;;10.03;9.43;;;;;;;;;;2613272;54;20401;-81
2023/09/20 00:37:32;;;;;;;9.90;9.00;;;;;;;;;;2610649;54;20396;-81
2023/09/20 00:43:07;;;;;;;9.77;9.07;;;;;;;;;;2613150;54;20383;-80
2023/09/20 00:48:41;;;;;;;9.70;8.90;;;;;;;;;;2612967;54;20399;-79
2023/09/20 00:54:11;;;;;;;8.47;7.67;;;;;;;;;;2611920;54;20391;-79
2023/09/20 00:59:40;;;;;;;9.57;8.70;;;;;;;;;;2611668;54;20447;-79
2023/09/20 01:11:17;;;;;;;10.10;9.30;;;;;;;;;;2613807;54;20394;-80
2023/09/20 01:16:47;;;;;;;9.63;8.73;;;;;;;;;;2613332;54;20432;-81
2023/09/20 01:22:17;;;;;;;8.27;7.77;;;;;;;;;;2612863;54;20515;-82
2023/09/20 01:27:48;;;;;;;9.23;8.17;;;;;;;;;;2612490;54;20487;-82
2023/09/20 01:33:17;;;;;;;7.90;7.40;;;;;;;;;;2612352;54;20918;-82
2023/09/20 01:38:47;;;;;;;9.90;9.10;;;;;;;;;;2611128;54;21036;-82
2023/09/20 01:44:17;;;;;;;8.00;7.37;;;;;;;;;;2612182;54;20387;-81
2023/09/20 01:49:47;;;;;;;10.43;8.00;;;;;;;;;;2612220;54;20611;-81
2023/09/20 01:55:21;;;;;;;9.17;8.20;;;;;;;;;;2614019;54;20411;-81
2023/09/20 02:00:50;;;;;;;9.17;7.70;;;;;;;;;;2609633;54;20394;-80
2023/09/20 02:09:58;;;;;;;9.60;8.10;;;;;;;;;;2612413;54;21086;-80
2023/09/20 02:15:29;;;;;;;7.20;6.80;;;;;;;;;;2612236;54;20394;-77
2023/09/20 02:20:59;;;;;;;14.20;7.33;;;;;;;;;;2612576;46;20510;-79
2023/09/20 02:26:30;;;;;;;8.80;8.10;;;;;;;;;;2612328;39;20465;-78
2023/09/20 02:32:00;;;;;;;8.40;7.60;;;;;;;;;;2614444;54;20362;-78
2023/09/20 02:37:30;;;;;;;8.30;7.67;;;;;;;;;;2613148;54;20391;-78
2023/09/20 02:40:17;;;;;;;8.30;7.50;;;;;;;;;;2612903;39;20869;-77
2023/09/20 02:42:44;;;;;;;10.00;7.40;;;;;;;;;;2611423;54;20982;-79
2023/09/20 02:48:14;;;;;;;9.03;8.20;;;;;;;;;;2612743;54;20406;-79
2023/09/20 02:53:44;;;;;;;9.07;7.83;;;;;;;;;;2612255;54;20391;-78
2023/09/20 02:59:13;;;;;;;9.63;8.60;;;;;;;;;;2611683;54;20415;-78
2023/09/20 03:04:43;;;;;;;8.00;7.33;;;;;;;;;;2610144;54;20390;-79
2023/09/20 03:10:14;;;;;;;10.10;7.57;;;;;;;;;;2611024;54;20430;-78
2023/09/20 03:15:45;;;;;;;8.90;8.20;;;;;;;;;;2611054;39;20544;-79
2023/09/20 03:21:15;;;;;;;8.13;7.43;;;;;;;;;;2609554;54;20398;-78
2023/09/20 03:26:44;;;;;;;7.70;6.90;;;;;;;;;;2611654;54;21064;-81
2023/09/20 03:32:15;;;;;;;7.90;7.40;;;;;;;;;;2612852;54;20376;-81
2023/09/20 03:37:45;;;;;;;10.37;8.17;;;;;;;;;;2611775;54;20450;-80
2023/09/20 03:43:15;;;;;;;7.70;7.10;;;;;;;;;;2609542;54;20454;-80
2023/09/20 03:48:45;;;;;;;7.00;6.50;;;;;;;;;;2610735;54;20917;-81
2023/09/20 03:54:16;;;;;;;8.50;7.90;;;;;;;;;;2607846;54;20916;-81
2023/09/20 03:59:47;;;;;;;7.60;6.90;;;;;;;;;;2609717;54;20398;-81
2023/09/20 04:05:16;;;;;;;6.67;6.07;;;;;;;;;;2608585;54;20403;-80
2023/09/20 04:16:54;;;;;;;7.20;6.50;;;;;;;;;;2608685;54;20377;-81
2023/09/20 04:22:24;;;;;;;7.00;6.30;;;;;;;;;;2607515;54;20414;-81
2023/09/20 04:27:54;;;;;;;6.83;6.23;;;;;;;;;;2609995;54;20415;-81
2023/09/20 04:33:24;;;;;;;8.90;7.07;;;;;;;;;;2608001;54;20398;-81
2023/09/20 04:38:54;;;;;;;6.40;6.00;;;;;;;;;;2610098;54;21446;-79
2023/09/20 04:44:24;;;;;;;8.63;7.07;;;;;;;;;;2610922;54;20962;-79
2023/09/20 04:49:54;;;;;;;8.03;6.27;;;;;;;;;;2609324;54;20964;-79
2023/09/20 04:55:25;;;;;;;6.37;5.80;;;;;;;;;;2611551;54;20391;-79
2023/09/20 05:00:55;;;;;;;8.27;6.60;;;;;;;;;;2610672;54;20490;-79
2023/09/20 05:06:24;;;;;;;8.80;7.20;;;;;;;;;;2613181;54;20945;-78
2023/09/20 05:15:32;;;;;;;6.67;5.80;;;;;;;;;;2612705;54;20444;-79
2023/09/20 05:21:01;;;;;;;6.63;5.53;;;;;;;;;;2609043;54;20413;-79
2023/09/20 05:26:31;;;;;;;10.97;7.40;;;;;;;;;;2612890;54;20395;-78
2023/09/20 05:32:01;;;;;;;7.90;6.30;;;;;;;;;;2608722;54;20402;-78
2023/09/20 05:37:31;;;;;;;6.87;6.30;;;;;;;;;;2611891;31;20852;-78
2023/09/20 05:43:03;;;;;;;6.97;6.43;;;;;;;;;;2611769;31;20883;-78
2023/09/20 05:48:34;;;;;;;10.90;6.93;;;;;;;;;;2610960;54;21007;-80
2023/09/20 05:54:04;;;;;;;6.60;6.00;;;;;;;;;;2611314;54;20498;-79
2023/09/20 05:59:34;;;;;;;9.10;7.17;;;;;;;;;;2614753;54;20404;-80
2023/09/20 06:05:04;;;;;;;7.40;6.70;;;;;;;;;;2614209;54;20391;-80
2023/09/20 06:10:34;;;;;;;8.70;7.90;;;;;;;;;;2615691;46;20409;-79
2023/09/20 06:16:06;;;;;;;10.67;7.20;;;;;;;;;;2615021;54;20993;-80
2023/09/20 06:21:38;;;;;;;7.40;6.90;;;;;;;;;;2615017;54;20931;-80
2023/09/20 06:27:07;;;;;;;8.43;6.90;;;;;;;;;;2613159;54;20406;-80
2023/09/20 06:32:37;;;;;;;9.17;8.07;;;;;;;;;;2614142;54;20395;-80
2023/09/20 06:38:09;;;;;;;8.77;8.17;;;;;;;;;;2614659;54;20419;-80
2023/09/20 06:43:39;;;;;;;10.80;8.10;;;;;;;;;;2614613;54;20395;-80
2023/09/20 06:49:09;;;;;;;8.87;8.07;;;;;;;;;;2613595;54;20371;-80
2023/09/20 06:54:39;;;;;;;11.00;10.20;;;;;;;;;;2615332;39;20470;-78
2023/09/20 07:00:16;;;;;;;9.13;8.50;;;;;;;;;;2613084;54;20419;-79
2023/09/20 07:05:47;;;;;;;8.40;7.63;;;;;;;;;;2613320;54;21021;-78
2023/09/20 07:11:34;;;;;;;9.23;8.30;;;;;;;;;;2613668;46;20376;-78
2023/09/20 07:25:55;;;;;;;8.57;8.07;;;;;;;;;;2612778;54;20386;-78
2023/09/20 07:31:25;;;;;;;9.20;8.30;;;;;;;;;;2612574;54;21059;-78
2023/09/20 07:36:56;;;;;;;8.53;8.03;;;;;;;;;;2611547;54;20412;-78
2023/09/20 07:42:26;;;;;;;8.37;7.77;;;;;;;;;;2613481;39;20937;-78
2023/09/20 07:47:55;;;;;;;10.07;9.47;;;;;;;;;;2614862;54;20505;-78
2023/09/20 07:53:25;;;;;;;10.57;9.77;;;;;;;;;;2613717;54;20407;-78
2023/09/20 07:58:55;;;;;;;10.13;9.33;;;;;;;;;;2614896;54;20390;-81
2023/09/20 08:04:25;;;;;;;9.37;8.63;;;;;;;;;;2613969;54;20383;-80
2023/09/20 08:09:55;;;;;;;9.63;8.83;;;;;;;;;;2611722;54;20500;-80
2023/09/20 08:15:26;;;;;;;10.17;9.47;;;;;;;;;;2614453;54;20399;-80
2023/09/20 08:20:56;;;;;;;10.07;9.40;;;;;;;;;;2614014;54;20386;-80
2023/09/20 09:01:17;;;;;;;10.20;9.70;;;;;;;;;;2614862;39;20773;-80
2023/09/20 09:06:47;;;;;;;9.97;9.27;;;;;;;;;;2611874;54;20374;-80
2023/09/20 09:12:16;;;;;;;11.37;10.70;;;;;;;;;;2611049;54;20467;-80
2023/09/20 09:21:21;;;;;;;12.17;11.07;;;;;;;;;;2611924;54;20439;-80
2023/09/20 09:32:51;;;;;;;9.80;9.30;;;;;;;;;;2611452;54;20374;-80
2023/09/20 09:38:21;;;;;;;10.30;9.60;;;;;;;;;;2613561;54;20391;-80
2023/09/20 09:49:48;;;;;;;9.83;9.23;;;;;;;;;;2610246;54;20377;-80
2023/09/20 09:55:19;;;;;;;10.93;10.43;;;;;;;;;;2608388;54;21457;-79
2023/09/20 10:00:51;;;;;;;9.13;8.47;;;;;;;;;;2608705;39;20849;-79
2023/09/20 10:06:27;;;;;;;10.07;9.37;;;;;;;;;;2613464;54;20503;-80
2023/09/20 10:11:57;;;;;;;9.40;8.90;;;;;;;;;;2610237;54;20403;-80
2023/09/20 10:23:37;;;;;;;9.30;8.80;;;;;;;;;;2612161;54;20406;-80
2023/09/20 10:29:26;;;;;;;10.27;9.50;;;;;;;;;;2611283;54;20383;-80
2023/09/20 10:35:14;;;;;;;9.80;9.00;;;;;;;;;;2614385;54;20416;-80
2023/09/20 10:46:37;;;;;;;10.00;9.40;;;;;;;;;;2611520;54;20376;-80
2023/09/20 10:52:08;;;;;;;9.33;8.80;;;;;;;;;;2612426;54;20379;-80
2023/09/20 10:57:41;;;;;;;9.80;9.30;;;;;;;;;;2611563;54;20419;-80
2023/09/20 11:03:12;;;;;;;9.40;8.90;;;;;;;;;;2611959;54;20459;-80
2023/09/20 11:08:43;;;;;;;9.80;9.23;;;;;;;;;;2610268;54;20448;-80
2023/09/20 11:14:13;;;;;;;10.40;9.80;;;;;;;;;;2611537;54;20994;-80
2023/09/20 11:16:52;;;;;;;10.47;9.50;;;;;;;;;;2612787;54;21003;-80
2023/09/20 11:19:19;;;;;;;10.43;9.90;;;;;;;;;;2610252;47;20419;-81
2023/09/20 11:24:51;;;;;;;9.90;9.40;;;;;;;;;;2609986;54;20406;-81
2023/09/20 11:30:27;;;;;;;10.33;9.80;;;;;;;;;;2610791;54;20506;-80
2023/09/20 11:35:57;;;;;;;10.10;9.60;;;;;;;;;;2612360;54;20464;-79
2023/09/20 11:41:26;;;;;;;10.93;10.23;;;;;;;;;;2611559;54;20962;-79
2023/09/20 11:46:57;;;;;;;10.53;10.03;;;;;;;;;;2611719;54;20382;-78
2023/09/20 11:52:27;;;;;;;10.17;9.67;;;;;;;;;;2613460;54;20379;-78
2023/09/20 11:58:00;;;;;;;11.20;10.60;;;;;;;;;;2612457;54;20490;-80
2023/09/20 12:03:30;;;;;;;10.60;9.90;;;;;;;;;;2615664;54;20490;-79
2023/09/20 12:09:00;;;;;;;10.10;9.60;;;;;;;;;;2612920;54;20435;-78
2023/09/20 12:14:31;;;;;;;10.70;10.00;;;;;;;;;;2612717;54;20406;-78
2023/09/20 12:23:44;;;;;;;10.77;10.33;;;;;;;;;;2612140;54;21061;-78
2023/09/20 12:29:14;;;;;;;11.23;10.50;;;;;;;;;;2612608;39;20800;-78
2023/09/20 12:34:43;;;;;;;11.47;10.97;;;;;;;;;;2613635;54;20380;-79
2023/09/20 12:40:13;;;;;;;11.60;11.10;;;;;;;;;;2611950;54;20376;-79
2023/09/20 12:45:43;;;;;;;9.97;9.57;;;;;;;;;;2614973;54;20545;-79
2023/09/20 12:51:13;;;;;;;12.03;11.33;;;;;;;;;;2614624;54;20411;-77
2023/09/20 12:56:42;;;;;;;11.33;10.73;;;;;;;;;;2614016;54;20391;-77
2023/09/20 13:02:12;;;;;;;11.53;11.00;;;;;;;;;;2615303;54;20548;-77
2023/09/20 13:07:42;;;;;;;12.60;11.67;;;;;;;;;;2614633;54;20961;-79
2023/09/20 13:13:11;;;;;;;12.57;11.57;;;;;;;;;;2616411;39;21102;-77
2023/09/20 13:18:44;;;;;;;11.50;11.10;;;;;;;;;;2616369;54;20403;-79
2023/09/20 13:24:13;;;;;;;12.67;11.97;;;;;;;;;;2613477;54;20396;-79
2023/09/20 13:29:43;;;;;;;11.83;11.23;;;;;;;;;;2612903;54;20934;-79
2023/09/20 13:35:15;;;;;;;12.30;11.70;;;;;;;;;;2614964;54;20407;-79
2023/09/20 13:40:46;;;;;;;11.80;11.30;;;;;;;;;;2613273;54;20467;-78
2023/09/20 13:46:17;;;;;;;10.87;10.27;;;;;;;;;;2616281;54;20495;-77
2023/09/20 13:51:48;;;;;;;10.77;10.17;;;;;;;;;;2613412;54;20383;-77
2023/09/20 13:57:18;;;;;;;11.57;11.07;;;;;;;;;;2613901;54;20391;-80
2023/09/20 14:02:47;;;;;;;12.27;11.57;;;;;;;;;;2613534;54;20386;-79
2023/09/20 14:08:17;;;;;;;11.70;11.03;;;;;;;;;;2616001;54;20439;-79
2023/09/20 14:13:48;;;;;;;11.97;11.27;;;;;;;;;;2615887;54;20414;-80
2023/09/20 14:25:25;;;;;;;12.70;11.90;;;;;;;;;;2615375;54;20466;-80
2023/09/20 14:28:16;;;;;;;12.97;12.10;;;;;;;;;;2614924;54;20442;-79
2023/09/20 14:33:46;;;;;;;11.50;11.00;;;;;;;;;;2615780;54;20379;-81
2023/09/20 14:39:16;;;;;;;11.77;11.27;;;;;;;;;;2614941;54;20546;-79
2023/09/20 14:42:02;;;;;;;12.00;11.50;;;;;;;;;;2614538;54;20404;-79
2023/09/20 14:44:28;;;;;;;13.13;12.43;;;;;;;;;;2613437;47;20425;-80
2023/09/20 14:49:58;;;;;;;11.60;11.10;;;;;;;;;;2615995;39;20919;-79
2023/09/20 14:55:28;;;;;;;12.30;11.80;;;;;;;;;;2614402;54;20487;-81
2023/09/20 15:00:58;;;;;;;12.57;11.97;;;;;;;;;;2615464;54;20397;-79
2023/09/20 15:06:28;;;;;;;12.23;11.53;;;;;;;;;;2615500;54;20395;-79
2023/09/20 15:11:58;;;;;;;12.63;11.90;;;;;;;;;;2614863;54;20970;-80
2023/09/20 15:17:28;;;;;;;12.33;11.50;;;;;;;;;;2646937;36;20470;-80
2023/09/20 15:22:58;;;;;;;12.90;11.97;;;;;;;;;;2614363;54;20962;-80
2023/09/20 15:28:28;;;;;;;12.47;11.87;;;;;;;;;;2615172;54;20501;-80
2023/09/20 15:34:00;;;;;;;13.40;12.57;;;;;;;;;;2615794;54;20545;-79
2023/09/20 15:39:29;;;;;;;13.07;12.10;;;;;;;;;;2614545;54;20394;-80
2023/09/20 15:44:59;;;;;;;12.50;11.80;;;;;;;;;;2615405;54;20427;-80
2023/09/20 15:50:33;;;;;;;11.37;10.80;;;;;;;;;;2615999;31;20827;-80
2023/09/20 15:56:05;;;;;;;11.67;10.97;;;;;;;;;;2615277;54;20366;-79
2023/09/20 16:01:36;;;;;;;11.60;10.90;;;;;;;;;;2614933;54;20415;-79
2023/09/20 16:07:06;;;;;;;12.50;11.77;;;;;;;;;;2615596;54;20391;-79
2023/09/20 16:12:36;;;;;;;11.37;10.77;;;;;;;;;;2614158;54;20382;-79
2023/09/20 16:18:06;;;;;;;12.07;11.47;;;;;;;;;;2615836;54;20957;-79
2023/09/20 16:23:36;;;;;;;11.77;11.13;;;;;;;;;;2615321;54;20410;-80
2023/09/20 16:29:06;;;;;;;12.43;11.73;;;;;;;;;;2615694;54;20926;-81
2023/09/20 16:34:36;;;;;;;12.53;11.80;;;;;;;;;;2614941;54;20422;-80
2023/09/20 16:40:06;;;;;;;13.23;11.87;;;;;;;;;;2615196;54;20410;-78
2023/09/20 16:45:35;;;;;;;12.40;11.60;;;;;;;;;;2615014;54;20383;-79
2023/09/20 16:51:05;;;;;;;12.83;11.90;;;;;;;;;;2615267;54;20399;-79
2023/09/20 16:56:35;;;;;;;11.60;11.00;;;;;;;;;;2616018;54;20367;-80
2023/09/20 17:02:06;;;;;;;12.60;11.83;;;;;;;;;;2612931;54;20455;-80
2023/09/20 17:07:36;;;;;;;12.03;11.40;;;;;;;;;;2615679;54;20440;-80
2023/09/20 17:13:06;;;;;;;11.70;11.10;;;;;;;;;;2616364;54;20386;-81
2023/09/20 17:18:36;;;;;;;11.80;11.20;;;;;;;;;;2615331;54;20431;-82
2023/09/20 17:30:16;;;;;;;12.37;11.70;;;;;;;;;;2615008;54;20936;-81
2023/09/20 17:35:47;;;;;;;12.40;11.30;;;;;;;;;;2616340;39;21048;-81
2023/09/20 17:41:17;;;;;;;11.77;11.13;;;;;;;;;;2616350;54;20964;-81
2023/09/20 17:46:47;;;;;;;11.80;10.90;;;;;;;;;;2616260;54;20395;-82
2023/09/20 17:52:16;;;;;;;12.53;11.57;;;;;;;;;;2616428;54;21037;-81
2023/09/20 17:57:47;;;;;;;12.40;11.50;;;;;;;;;;2616421;54;20407;-81
2023/09/20 18:03:18;;;;;;;12.33;11.60;;;;;;;;;;2615983;54;20559;-83
2023/09/20 18:08:49;;;;;;;12.83;11.83;;;;;;;;;;2615977;54;20399;-83
2023/09/20 18:14:18;;;;;;;12.83;11.67;;;;;;;;;;2616699;54;20415;-82
2023/09/20 18:19:48;;;;;;;11.00;10.50;;;;;;;;;;2616852;54;20399;-82
2023/09/20 18:31:31;;;;;;;11.77;11.07;;;;;;;;;;2614022;54;20434;-81
2023/09/20 18:37:03;;;;;;;11.90;10.97;;;;;;;;;;2615750;54;20464;-82
2023/09/20 18:42:33;;;;;;;12.07;11.47;;;;;;;;;;2616696;54;20902;-81
2023/09/20 18:48:03;;;;;;;12.37;11.47;;;;;;;;;;2614468;54;20386;-82
2023/09/20 18:53:36;;;;;;;12.17;11.37;;;;;;;;;;2614588;54;20412;-81
2023/09/20 18:59:06;;;;;;;11.27;10.67;;;;;;;;;;2615756;54;20390;-83
2023/09/20 19:04:37;;;;;;;11.37;10.67;;;;;;;;;;2614662;54;20402;-83
2023/09/20 19:10:06;;;;;;;11.20;10.40;;;;;;;;;;2613869;39;21265;-82
2023/09/20 19:15:41;;;;;;;11.20;10.20;;;;;;;;;;2614463;54;20403;-82
2023/09/20 19:21:11;;;;;;;11.53;10.70;;;;;;;;;;2614430;54;20957;-84
2023/09/20 19:30:17;;;;;;;10.57;9.73;;;;;;;;;;2615084;54;21005;-83
2023/09/20 19:35:47;;;;;;;11.13;10.30;;;;;;;;;;2614704;54;20401;-83
2023/09/20 19:41:17;;;;;;;10.77;10.17;;;;;;;;;;2614811;54;20406;-83
2023/09/20 19:46:48;;;;;;;9.90;9.40;;;;;;;;;;2615034;54;20423;-80
2023/09/20 19:52:18;;;;;;;10.03;9.43;;;;;;;;;;2612894;54;22091;-81
2023/09/20 19:57:49;;;;;;;10.07;9.37;;;;;;;;;;2612782;54;20366;-80
2023/09/20 20:03:18;;;;;;;10.97;10.00;;;;;;;;;;2612129;39;20754;-80
2023/09/20 20:08:48;;;;;;;10.13;9.43;;;;;;;;;;2612101;54;20511;-80
2023/09/20 20:14:19;;;;;;;10.63;9.77;;;;;;;;;;2612499;54;20414;-81
2023/09/20 20:19:48;;;;;;;10.97;10.07;;;;;;;;;;2613300;54;20434;-80
2023/09/20 20:25:21;;;;;;;10.47;9.83;;;;;;;;;;2613056;54;20407;-80
2023/09/20 20:30:51;;;;;;;11.10;10.17;;;;;;;;;;2613169;54;20410;-80
2023/09/20 20:36:21;;;;;;;10.27;9.57;;;;;;;;;;2613197;54;20422;-81
2023/09/20 20:41:51;;;;;;;10.73;10.13;;;;;;;;;;2612678;54;20458;-81
2023/09/20 20:47:20;;;;;;;11.03;10.13;;;;;;;;;;2614611;54;20379;-81
2023/09/20 20:52:52;;;;;;;11.03;10.23;;;;;;;;;;2615194;54;20555;-81
2023/09/20 20:58:24;;;;;;;9.70;9.03;;;;;;;;;;2614041;54;20407;-83
2023/09/20 21:03:53;;;;;;;10.17;9.50;;;;;;;;;;2611345;54;20403;-83
2023/09/20 21:06:39;;;;;;;10.07;9.37;;;;;;;;;;2613938;54;20418;-82
2023/09/20 21:09:08;;;;;;;10.10;9.37;;;;;;;;;;2613010;54;20414;-83
2023/09/20 21:14:38;;;;;;;10.23;9.70;;;;;;;;;;2612303;54;20493;-82
2023/09/20 21:20:14;;;;;;;9.90;9.03;;;;;;;;;;2612862;54;20490;-82
2023/09/20 21:25:45;;;;;;;9.50;9.00;;;;;;;;;;2616232;54;20475;-82
2023/09/20 21:31:15;;;;;;;10.73;9.87;;;;;;;;;;2616455;39;20803;-82
2023/09/20 21:36:44;;;;;;;9.90;9.30;;;;;;;;;;2612839;54;20905;-80
2023/09/20 21:42:14;;;;;;;10.73;10.03;;;;;;;;;;2615799;54;20422;-81
2023/09/20 21:47:44;;;;;;;10.63;9.70;;;;;;;;;;2616021;54;20483;-80
2023/09/20 21:53:14;;;;;;;10.30;9.70;;;;;;;;;;2616158;54;20516;-81
2023/09/20 21:58:43;;;;;;;10.70;10.10;;;;;;;;;;2615627;54;20906;-80
2023/09/20 22:04:13;;;;;;;10.60;9.93;;;;;;;;;;2614359;54;20431;-81
2023/09/20 22:09:45;;;;;;;11.67;10.77;;;;;;;;;;2615118;54;20391;-80
2023/09/20 22:15:21;;;;;;;10.17;9.37;;;;;;;;;;2612500;54;20379;-81
2023/09/20 22:20:52;;;;;;;10.17;9.67;;;;;;;;;;2614475;39;21638;-81
2023/09/20 22:32:29;;;;;;;11.30;10.60;;;;;;;;;;2612879;54;20375;-80
2023/09/20 22:38:00;;;;;;;10.30;9.80;;;;;;;;;;2613343;54;20407;-80
2023/09/20 22:43:30;;;;;;;10.87;10.37;;;;;;;;;;2610991;54;20399;-81
2023/09/20 22:49:04;;;;;;;11.20;10.53;;;;;;;;;;2612668;54;20395;-82
2023/09/20 22:54:34;;;;;;;10.63;9.97;;;;;;;;;;2612510;54;21079;-83
2023/09/20 23:00:21;;;;;;;10.63;10.13;;;;;;;;;;2612759;54;20390;-82
2023/09/20 23:05:51;;;;;;;10.50;9.90;;;;;;;;;;2613243;39;20828;-82
2023/09/20 23:11:27;;;;;;;10.57;10.07;;;;;;;;;;2612911;54;20423;-82
2023/09/20 23:17:15;;;;;;;10.53;9.93;;;;;;;;;;2612458;54;20408;-80
2023/09/20 23:22:46;;;;;;;10.03;9.60;;;;;;;;;;2612280;54;21048;-80
2023/09/20 23:25:50;;;;;;;10.47;9.87;;;;;;;;;;2612209;54;20426;-81
2023/09/20 23:28:16;;;;;;;10.47;9.87;;;;;;;;;;2614749;39;20811;-82
2023/09/20 23:33:48;;;;;;;11.03;10.20;;;;;;;;;;2612336;54;20383;-81
2023/09/20 23:39:23;;;;;;;10.73;10.13;;;;;;;;;;2612111;54;20407;-81
2023/09/20 23:44:55;;;;;;;10.70;10.20;;;;;;;;;;2611990;54;20422;-79
2023/09/20 23:50:25;;;;;;;11.10;10.43;;;;;;;;;;2612887;54;20387;-82
2023/09/20 23:53:10;;;;;;;11.20;10.60;;;;;;;;;;2611407;47;20430;-81
2023/09/20 23:55:36;;;;;;;10.20;9.70;;;;;;;;;;2611692;46;20438;-81
